Time;durP1;ratioP1;P1;durP2;ratioP2;P2;SDS_P1;SDS_P2;PMS_P1;PMS_P2;Temp;Humidity;BMP_temperature;BMP_pressure;BME280_temperature;BME280_humidity;BME280_pressure;Samples;Min_cycle;Max_cycle;Signal;HPM_P1;HPM_P2
2021/11/06 00:00:32;;;;;;;3.77;3.30;;;21.80;53.30;;;;;;5020964;28;20434;-78
2021/11/06 00:02:58;;;;;;;3.60;3.30;;;21.80;53.30;;;;;;5036024;28;20398;-76
2021/11/06 00:05:29;;;;;;;3.30;3.00;;;21.80;53.30;;;;;;5053780;28;20411;-77
2021/11/06 00:07:55;;;;;;;4.03;3.17;;;21.80;53.30;;;;;;5035409;28;20452;-78
2021/11/06 00:10:21;;;;;;;3.20;2.70;;;21.80;53.30;;;;;;5036911;28;20494;-78
2021/11/06 00:12:48;;;;;;;5.63;3.93;;;21.80;53.30;;;;;;5035856;28;20456;-78
2021/11/06 00:15:14;;;;;;;5.03;3.50;;;21.80;53.20;;;;;;5053650;28;20164;-77
2021/11/06 00:17:41;;;;;;;4.37;3.40;;;21.80;53.30;;;;;;5034334;28;20455;-77
2021/11/06 00:20:09;;;;;;;4.37;3.27;;;21.80;53.20;;;;;;5036384;28;20486;-77
2021/11/06 00:22:35;;;;;;;3.80;3.17;;;21.80;53.30;;;;;;5052776;28;20482;-77
2021/11/06 00:25:05;;;;;;;4.93;3.60;;;21.80;53.30;;;;;;5052403;28;20929;-77
2021/11/06 00:27:32;;;;;;;4.20;3.07;;;21.80;53.30;;;;;;5019431;28;20462;-77
2021/11/06 00:29:58;;;;;;;3.40;3.00;;;21.70;53.20;;;;;;5038966;28;20426;-78
2021/11/06 00:32:26;;;;;;;3.60;2.90;;;21.70;53.20;;;;;;5057159;28;20461;-78
2021/11/06 00:34:59;;;;;;;4.47;3.53;;;21.70;53.20;;;;;;5048027;28;20184;-78
2021/11/06 00:37:26;;;;;;;4.27;3.40;;;21.70;53.20;;;;;;5039255;28;20457;-78
2021/11/06 00:39:52;;;;;;;3.97;3.13;;;21.70;53.20;;;;;;5037761;28;20430;-78
2021/11/06 00:42:19;;;;;;;4.20;3.80;;;21.70;53.20;;;;;;5038213;28;20519;-78
2021/11/06 00:44:44;;;;;;;4.93;3.70;;;21.70;53.20;;;;;;5037430;28;20489;-78
2021/11/06 00:47:13;;;;;;;3.17;2.87;;;21.70;53.20;;;;;;5056148;28;20418;-79
2021/11/06 00:49:39;;;;;;;3.90;3.50;;;21.70;53.30;;;;;;5038658;28;20754;-78
2021/11/06 00:52:08;;;;;;;3.03;2.70;;;21.70;53.30;;;;;;5056069;28;20442;-79
2021/11/06 00:54:36;;;;;;;3.97;3.50;;;21.70;53.20;;;;;;5039236;28;20456;-78
2021/11/06 00:57:03;;;;;;;4.53;3.60;;;21.70;53.20;;;;;;5036529;28;21199;-78
2021/11/06 00:59:29;;;;;;;3.80;3.50;;;21.70;53.20;;;;;;5041360;28;20431;-78
2021/11/06 01:01:58;;;;;;;5.27;3.60;;;21.70;53.30;;;;;;5055987;28;20433;-78
2021/11/06 01:04:24;;;;;;;3.53;3.17;;;21.70;53.20;;;;;;5039315;28;20175;-78
2021/11/06 01:06:50;;;;;;;3.70;3.40;;;21.70;53.20;;;;;;5036667;28;20430;-78
2021/11/06 01:09:22;;;;;;;3.60;2.90;;;21.70;53.20;;;;;;5055995;28;20199;-78
2021/11/06 01:11:48;;;;;;;5.80;3.03;;;21.70;53.20;;;;;;5055785;28;20226;-78
2021/11/06 01:14:14;;;;;;;5.47;3.37;;;21.70;53.20;;;;;;5036252;28;20431;-78
2021/11/06 01:16:46;;;;;;;3.87;3.47;;;21.70;53.20;;;;;;5031665;28;20423;-80
2021/11/06 01:19:12;;;;;;;4.80;3.97;;;21.70;53.20;;;;;;5027813;28;20172;-78
2021/11/06 01:21:39;;;;;;;3.70;3.27;;;21.70;53.20;;;;;;5034413;28;20414;-79
2021/11/06 01:24:05;;;;;;;3.53;3.00;;;21.70;53.20;;;;;;5055056;28;20457;-78
2021/11/06 01:26:31;;;;;;;3.73;2.80;;;21.70;53.20;;;;;;5054826;28;20418;-78
2021/11/06 01:29:00;;;;;;;3.40;3.03;;;21.70;53.20;;;;;;5039007;28;20484;-78
2021/11/06 01:31:27;;;;;;;3.17;2.87;;;21.70;53.20;;;;;;5055034;28;20422;-78
2021/11/06 01:33:53;;;;;;;5.87;3.40;;;21.70;53.20;;;;;;5054421;28;20446;-78
2021/11/06 01:36:19;;;;;;;6.07;4.50;;;21.70;53.20;;;;;;5053843;28;20407;-78
2021/11/06 01:38:45;;;;;;;4.13;3.40;;;21.70;53.20;;;;;;5036363;28;20518;-78
2021/11/06 01:41:12;;;;;;;4.77;3.13;;;21.70;53.20;;;;;;5035009;28;20430;-78
2021/11/06 01:43:42;;;;;;;3.60;3.07;;;21.70;53.20;;;;;;5049227;28;20188;-78
2021/11/06 01:46:09;;;;;;;3.53;3.23;;;21.70;53.20;;;;;;5034543;28;20409;-78
2021/11/06 01:48:35;;;;;;;4.00;3.37;;;21.70;53.20;;;;;;5036788;28;20422;-78
2021/11/06 01:51:04;;;;;;;3.40;3.10;;;21.70;53.20;;;;;;5037095;28;20497;-79
2021/11/06 01:53:29;;;;;;;4.50;3.40;;;21.70;53.20;;;;;;5054277;28;20477;-77
2021/11/06 01:55:58;;;;;;;2.83;2.50;;;21.70;53.20;;;;;;5054186;28;20484;-78
2021/11/06 01:58:25;;;;;;;2.87;2.67;;;21.70;53.20;;;;;;5036734;28;20187;-78
2021/11/06 02:00:51;;;;;;;3.03;2.73;;;21.70;53.20;;;;;;5036585;28;20430;-78
2021/11/06 02:03:17;;;;;;;3.90;3.30;;;21.70;53.20;;;;;;5052431;28;20414;-78
2021/11/06 02:05:43;;;;;;;3.80;3.37;;;21.70;53.30;;;;;;5036876;28;20414;-78
2021/11/06 02:08:10;;;;;;;3.23;2.87;;;21.70;53.20;;;;;;5035251;28;20481;-78
2021/11/06 02:10:36;;;;;;;3.40;2.80;;;21.70;53.20;;;;;;5054370;28;20426;-77
2021/11/06 02:13:01;;;;;;;3.80;3.07;;;21.70;53.20;;;;;;5053508;28;20490;-78
2021/11/06 02:15:27;;;;;;;4.27;3.40;;;21.70;53.20;;;;;;5053607;28;20186;-78
2021/11/06 02:17:53;;;;;;;3.73;3.30;;;21.70;53.20;;;;;;5034912;28;20200;-78
2021/11/06 02:20:21;;;;;;;5.03;3.10;;;21.70;53.10;;;;;;5054234;28;20163;-78
2021/11/06 02:22:47;;;;;;;3.40;3.10;;;21.70;53.20;;;;;;5034830;28;20180;-77
2021/11/06 02:25:14;;;;;;;2.90;2.70;;;21.70;53.20;;;;;;5035910;28;20395;-79
2021/11/06 02:27:40;;;;;;;3.37;3.00;;;21.70;53.20;;;;;;5053778;28;20445;-78
2021/11/06 02:30:09;;;;;;;3.13;2.83;;;21.70;53.20;;;;;;5036405;28;20422;-79
2021/11/06 02:32:35;;;;;;;3.10;2.80;;;21.70;53.20;;;;;;5036522;28;20432;-77
2021/11/06 02:35:00;;;;;;;2.87;2.57;;;21.70;53.10;;;;;;5052397;28;20418;-79
2021/11/06 02:37:26;;;;;;;4.00;3.40;;;21.70;53.20;;;;;;5052981;28;20529;-77
2021/11/06 02:39:53;;;;;;;3.40;2.90;;;21.70;53.10;;;;;;5034255;28;20180;-78
2021/11/06 02:42:19;;;;;;;4.40;3.87;;;21.70;53.10;;;;;;5034727;28;20255;-77
2021/11/06 02:44:45;;;;;;;3.83;3.30;;;21.70;53.10;;;;;;5036714;28;20406;-77
2021/11/06 02:47:11;;;;;;;4.53;3.67;;;21.70;53.10;;;;;;5053854;28;20411;-77
2021/11/06 02:49:37;;;;;;;3.33;3.03;;;21.70;53.10;;;;;;5053911;28;20417;-78
2021/11/06 02:52:04;;;;;;;3.70;3.40;;;21.70;53.10;;;;;;5037139;28;20286;-77
2021/11/06 02:54:30;;;;;;;3.03;2.80;;;21.70;53.10;;;;;;5053320;28;20198;-77
2021/11/06 02:56:56;;;;;;;3.67;3.37;;;21.70;53.20;;;;;;5053904;28;20410;-77
2021/11/06 02:59:31;;;;;;;4.03;3.60;;;21.70;53.10;;;;;;5035645;28;20176;-78
2021/11/06 03:01:56;;;;;;;3.50;2.97;;;21.70;53.10;;;;;;5036416;28;20489;-77
2021/11/06 03:07:44;;;;;;;3.93;3.53;;;21.70;53.10;;;;;;5046229;28;20183;-78
2021/11/06 03:10:13;;;;;;;3.60;3.30;;;21.70;53.10;;;;;;5052939;28;20419;-80
2021/11/06 03:12:39;;;;;;;4.07;3.50;;;21.70;53.10;;;;;;5052564;28;20226;-78
2021/11/06 03:15:06;;;;;;;4.10;3.43;;;21.70;53.10;;;;;;5032786;28;20419;-78
2021/11/06 03:17:32;;;;;;;4.00;3.50;;;21.70;53.10;;;;;;5051079;28;20524;-78
2021/11/06 03:19:57;;;;;;;3.87;2.93;;;21.70;53.10;;;;;;5052487;28;20414;-80
2021/11/06 03:22:23;;;;;;;3.40;3.10;;;21.70;53.10;;;;;;5032178;28;20439;-80
2021/11/06 03:24:49;;;;;;;3.63;3.33;;;21.70;53.10;;;;;;5033718;28;20188;-80
2021/11/06 03:27:15;;;;;;;3.20;2.90;;;21.70;53.10;;;;;;5033787;28;20469;-79
2021/11/06 03:29:41;;;;;;;3.30;2.90;;;21.70;53.10;;;;;;5050985;28;20243;-79
2021/11/06 03:32:09;;;;;;;3.60;3.20;;;21.70;53.10;;;;;;5051795;28;20441;-79
2021/11/06 03:34:35;;;;;;;3.10;2.80;;;21.70;53.10;;;;;;5050818;28;20175;-80
2021/11/06 03:37:01;;;;;;;3.20;2.90;;;21.70;53.10;;;;;;5033828;28;20484;-79
2021/11/06 03:39:27;;;;;;;2.70;2.43;;;21.70;53.10;;;;;;5051026;28;20470;-80
2021/11/06 03:41:54;;;;;;;3.60;2.90;;;21.70;53.10;;;;;;5045672;28;20446;-79
2021/11/06 03:44:19;;;;;;;3.90;3.03;;;21.70;53.10;;;;;;5015332;28;20176;-80
2021/11/06 03:47:06;;;;;;;3.67;2.37;;;21.70;53.10;;;;;;5031922;28;20475;-79
2021/11/06 03:49:32;;;;;;;3.30;3.00;;;21.70;53.10;;;;;;5014746;28;20180;-79
2021/11/06 03:51:57;;;;;;;2.80;2.50;;;21.70;53.20;;;;;;5015054;28;20426;-80
2021/11/06 03:54:26;;;;;;;2.93;2.60;;;21.70;53.20;;;;;;5014967;28;20267;-80
2021/11/06 03:56:52;;;;;;;3.00;2.70;;;21.70;53.10;;;;;;5014650;28;20192;-80
2021/11/06 03:59:18;;;;;;;2.37;2.17;;;21.60;53.10;;;;;;5016741;28;20419;-79
2021/11/06 04:01:43;;;;;;;3.53;3.23;;;21.70;53.20;;;;;;5035793;28;20235;-80
2021/11/06 04:04:09;;;;;;;3.30;3.00;;;21.70;53.10;;;;;;5047123;28;20211;-79
2021/11/06 04:06:35;;;;;;;3.10;2.80;;;21.60;53.10;;;;;;5036535;28;20262;-80
2021/11/06 04:09:01;;;;;;;3.93;2.70;;;21.60;53.10;;;;;;5054754;28;20175;-80
2021/11/06 04:11:27;;;;;;;3.80;3.40;;;21.60;53.10;;;;;;5037119;28;20449;-79
2021/11/06 04:13:53;;;;;;;3.10;2.80;;;21.70;53.10;;;;;;5029070;28;20419;-79
2021/11/06 04:16:18;;;;;;;3.17;2.87;;;21.70;53.10;;;;;;5037957;28;20179;-79
2021/11/06 04:18:44;;;;;;;3.60;3.30;;;21.70;53.10;;;;;;5038365;28;20195;-79
2021/11/06 04:21:10;;;;;;;3.40;3.10;;;21.70;53.10;;;;;;5055762;28;20168;-79
2021/11/06 04:23:36;;;;;;;3.17;2.87;;;21.70;53.10;;;;;;5037926;28;20419;-80
2021/11/06 04:26:04;;;;;;;3.80;3.00;;;21.70;53.00;;;;;;5037385;28;20159;-79
2021/11/06 04:28:30;;;;;;;3.37;2.60;;;21.70;53.00;;;;;;5054833;28;20179;-79
2021/11/06 04:30:56;;;;;;;4.10;3.60;;;21.70;53.00;;;;;;5037749;28;20422;-80
2021/11/06 04:33:21;;;;;;;3.00;2.70;;;21.70;53.00;;;;;;5054840;28;20406;-79
2021/11/06 04:35:47;;;;;;;4.10;2.80;;;21.70;53.00;;;;;;5038043;28;20160;-79
2021/11/06 04:38:13;;;;;;;3.73;3.33;;;21.70;53.00;;;;;;5054679;28;20222;-80
2021/11/06 04:40:39;;;;;;;3.23;2.93;;;21.70;53.00;;;;;;5054811;28;20164;-79
2021/11/06 04:43:05;;;;;;;2.67;2.47;;;21.70;53.00;;;;;;5037265;28;20465;-79
2021/11/06 04:45:31;;;;;;;2.73;2.53;;;21.70;53.00;;;;;;5054213;28;20410;-80
2021/11/06 04:47:57;;;;;;;3.20;2.87;;;21.70;53.00;;;;;;5037658;28;20180;-79
2021/11/06 04:50:23;;;;;;;2.57;2.37;;;21.70;53.00;;;;;;5054694;28;20426;-79
2021/11/06 04:52:49;;;;;;;2.63;2.43;;;21.60;52.90;;;;;;5037826;28;20485;-79
2021/11/06 04:55:16;;;;;;;2.87;2.67;;;21.60;53.00;;;;;;5021029;28;20908;-79
2021/11/06 04:57:43;;;;;;;3.13;2.83;;;21.60;53.00;;;;;;5054463;28;20195;-79
2021/11/06 05:00:12;;;;;;;3.93;2.97;;;21.60;53.00;;;;;;5037470;28;20410;-80
2021/11/06 05:02:38;;;;;;;3.07;2.77;;;21.60;53.00;;;;;;5054564;28;20478;-79
2021/11/06 05:05:09;;;;;;;3.30;2.40;;;21.60;53.10;;;;;;5036970;28;20418;-79
2021/11/06 05:07:34;;;;;;;2.77;2.40;;;21.60;53.10;;;;;;5037375;28;20433;-79
2021/11/06 05:10:00;;;;;;;2.80;2.50;;;21.60;53.10;;;;;;5036422;28;20424;-79
2021/11/06 05:12:26;;;;;;;3.00;2.80;;;21.60;53.20;;;;;;5035895;28;20221;-79
2021/11/06 05:14:52;;;;;;;2.50;2.30;;;21.60;53.10;;;;;;5053663;28;20172;-79
2021/11/06 05:17:19;;;;;;;3.30;2.43;;;21.60;53.10;;;;;;5036786;28;20458;-80
2021/11/06 05:19:46;;;;;;;2.50;2.23;;;21.60;53.10;;;;;;5055211;28;20406;-78
2021/11/06 05:22:12;;;;;;;2.60;2.40;;;21.60;53.10;;;;;;5054475;28;20406;-79
2021/11/06 05:24:38;;;;;;;2.90;2.70;;;21.60;53.00;;;;;;5036330;28;20422;-79
2021/11/06 05:27:05;;;;;;;3.47;2.70;;;21.60;53.00;;;;;;5054188;28;20313;-80
2021/11/06 05:29:31;;;;;;;3.17;2.87;;;21.60;53.00;;;;;;5054914;28;20406;-80
2021/11/06 05:31:57;;;;;;;2.53;2.33;;;21.60;53.00;;;;;;5038329;28;20510;-79
2021/11/06 05:34:23;;;;;;;3.43;2.70;;;21.60;53.00;;;;;;5054148;28;20418;-78
2021/11/06 05:36:49;;;;;;;4.40;2.63;;;21.60;53.00;;;;;;5053512;28;20267;-80
2021/11/06 05:39:15;;;;;;;3.10;2.00;;;21.60;53.10;;;;;;5055486;28;20660;-79
2021/11/06 05:41:41;;;;;;;3.57;2.00;;;21.70;53.20;;;;;;5036725;28;20418;-81
2021/11/06 05:44:07;;;;;;;2.10;1.90;;;21.70;53.80;;;;;;5036496;28;20172;-81
2021/11/06 05:46:32;;;;;;;3.20;2.37;;;21.70;53.20;;;;;;5035863;28;20187;-80
2021/11/06 05:48:58;;;;;;;2.23;2.03;;;21.70;53.20;;;;;;5035138;28;20454;-80
2021/11/06 05:51:24;;;;;;;2.50;2.00;;;21.70;53.20;;;;;;5033801;28;20434;-80
2021/11/06 05:53:50;;;;;;;2.63;1.97;;;21.70;53.20;;;;;;5033172;28;20188;-80
2021/11/06 05:56:17;;;;;;;2.20;2.00;;;21.70;53.20;;;;;;5035557;28;20183;-80
2021/11/06 05:58:43;;;;;;;2.40;1.97;;;21.70;53.20;;;;;;5035346;28;20450;-80
2021/11/06 06:01:09;;;;;;;2.27;2.07;;;21.70;53.20;;;;;;5045204;28;20422;-80
2021/11/06 06:03:37;;;;;;;2.10;1.90;;;21.80;53.30;;;;;;5052761;28;20445;-80
2021/11/06 06:06:03;;;;;;;2.17;2.00;;;21.70;53.20;;;;;;5052122;28;20203;-80
2021/11/06 06:08:29;;;;;;;1.80;1.70;;;21.80;53.30;;;;;;5032131;28;20981;-80
2021/11/06 06:10:55;;;;;;;1.90;1.73;;;21.80;53.20;;;;;;5032991;28;20448;-80
2021/11/06 06:13:21;;;;;;;2.53;2.10;;;21.80;53.20;;;;;;5053025;28;20490;-80
2021/11/06 06:15:47;;;;;;;2.33;2.00;;;21.80;53.20;;;;;;5032453;28;20179;-80
2021/11/06 06:18:12;;;;;;;2.23;2.00;;;21.80;53.20;;;;;;5035007;28;20204;-80
2021/11/06 06:20:38;;;;;;;2.07;1.60;;;21.80;53.20;;;;;;5052297;28;20246;-78
2021/11/06 06:23:04;;;;;;;2.20;2.00;;;21.80;53.20;;;;;;5052086;28;20219;-78
2021/11/06 06:25:30;;;;;;;2.17;1.97;;;21.80;53.20;;;;;;5032810;28;20173;-78
2021/11/06 06:27:56;;;;;;;2.00;1.80;;;21.80;53.20;;;;;;5050322;28;20183;-78
2021/11/06 06:30:22;;;;;;;2.27;2.07;;;21.80;53.20;;;;;;5031771;28;20467;-80
2021/11/06 06:32:48;;;;;;;2.57;2.37;;;21.80;53.20;;;;;;5049855;28;20426;-80
2021/11/06 06:35:15;;;;;;;2.43;2.23;;;21.80;53.10;;;;;;5042963;28;20184;-79
2021/11/06 06:37:42;;;;;;;2.80;2.10;;;21.80;53.10;;;;;;5052030;28;20464;-79
2021/11/06 06:40:09;;;;;;;2.90;2.40;;;21.80;53.10;;;;;;5052100;28;20410;-79
2021/11/06 06:42:35;;;;;;;2.70;2.10;;;21.80;53.10;;;;;;5052035;28;20414;-78
2021/11/06 06:45:02;;;;;;;6.70;2.40;;;21.80;53.10;;;;;;5034338;28;20477;-79
2021/11/06 06:47:27;;;;;;;2.97;2.60;;;21.80;53.10;;;;;;5051554;28;20425;-78
2021/11/06 06:49:53;;;;;;;2.23;2.00;;;21.80;53.10;;;;;;5033995;28;20425;-78
2021/11/06 06:52:19;;;;;;;2.50;2.30;;;21.80;53.10;;;;;;5051230;28;20176;-79
2021/11/06 06:54:45;;;;;;;3.30;2.97;;;21.80;53.00;;;;;;5031068;28;20192;-79
2021/11/06 06:57:10;;;;;;;3.43;3.13;;;21.80;53.00;;;;;;5033647;28;20207;-79
2021/11/06 06:59:36;;;;;;;2.90;2.60;;;21.80;53.00;;;;;;5034401;28;20167;-79
2021/11/06 07:02:07;;;;;;;3.90;3.50;;;21.80;53.00;;;;;;5050559;28;20168;-79
2021/11/06 07:04:33;;;;;;;2.83;2.40;;;21.80;53.00;;;;;;5030411;28;20426;-80
2021/11/06 07:06:59;;;;;;;3.03;2.47;;;21.80;53.00;;;;;;5033806;28;20411;-79
2021/11/06 07:09:27;;;;;;;2.37;2.10;;;21.80;53.00;;;;;;5034155;28;20509;-79
2021/11/06 07:11:53;;;;;;;2.40;2.20;;;21.80;53.00;;;;;;5051225;28;20419;-79
2021/11/06 07:14:22;;;;;;;2.60;2.20;;;21.80;53.00;;;;;;5033713;28;20430;-79
2021/11/06 07:16:48;;;;;;;2.10;1.90;;;21.80;53.10;;;;;;5033890;28;20415;-79
2021/11/06 07:19:15;;;;;;;2.83;2.30;;;21.80;53.10;;;;;;5051892;28;20429;-79
2021/11/06 07:21:40;;;;;;;2.63;1.87;;;21.80;53.00;;;;;;5051974;28;20423;-79
2021/11/06 07:24:06;;;;;;;2.50;2.27;;;21.80;53.00;;;;;;5035056;28;20422;-79
2021/11/06 07:26:34;;;;;;;2.40;2.00;;;21.80;53.10;;;;;;5031562;28;20176;-79
2021/11/06 07:29:00;;;;;;;3.00;2.40;;;21.80;53.10;;;;;;5033570;28;20473;-79
2021/11/06 07:31:27;;;;;;;2.50;2.30;;;21.90;53.10;;;;;;5051674;28;20414;-79
2021/11/06 07:33:56;;;;;;;3.80;2.60;;;21.80;53.10;;;;;;5053455;28;20440;-79
2021/11/06 07:36:25;;;;;;;3.07;2.57;;;21.80;53.10;;;;;;5055768;28;20505;-80
2021/11/06 07:38:53;;;;;;;3.40;2.60;;;21.90;53.10;;;;;;5056254;28;20465;-80
2021/11/06 07:41:19;;;;;;;3.10;2.80;;;21.90;53.10;;;;;;5037115;28;20423;-79
2021/11/06 07:43:44;;;;;;;3.27;2.90;;;21.80;53.10;;;;;;5048240;28;20425;-80
2021/11/06 07:46:10;;;;;;;2.50;2.20;;;21.90;53.10;;;;;;5017853;28;20422;-80
2021/11/06 07:48:39;;;;;;;2.90;2.60;;;21.80;53.00;;;;;;5020243;28;20191;-80
2021/11/06 07:51:11;;;;;;;2.73;2.40;;;21.90;53.10;;;;;;5054822;28;20199;-81
2021/11/06 07:53:37;;;;;;;3.30;2.60;;;21.90;53.10;;;;;;5055048;28;20402;-80
2021/11/06 07:56:03;;;;;;;2.80;2.23;;;21.90;53.10;;;;;;5037682;28;20434;-81
2021/11/06 07:58:29;;;;;;;3.20;2.90;;;21.90;53.10;;;;;;5036450;28;20501;-81
2021/11/06 08:00:57;;;;;;;3.73;2.87;;;21.90;53.10;;;;;;5055765;28;20422;-78
2021/11/06 08:03:23;;;;;;;3.17;2.60;;;21.90;53.00;;;;;;5036940;28;20553;-79
2021/11/06 08:05:49;;;;;;;3.87;2.80;;;21.90;53.00;;;;;;5039988;28;20423;-79
2021/11/06 08:08:15;;;;;;;3.10;2.80;;;21.90;53.10;;;;;;5053856;28;20421;-79
2021/11/06 08:10:44;;;;;;;3.70;2.33;;;21.90;53.10;;;;;;5037072;28;20580;-79
2021/11/06 08:13:12;;;;;;;3.33;2.07;;;21.90;53.10;;;;;;5049851;28;20442;-78
2021/11/06 08:15:38;;;;;;;2.33;2.13;;;21.80;53.00;;;;;;5036357;28;20417;-78
2021/11/06 08:18:04;;;;;;;2.60;2.40;;;21.90;53.10;;;;;;5036257;28;20580;-78
2021/11/06 08:20:30;;;;;;;3.60;2.60;;;21.80;53.00;;;;;;5036620;28;20442;-79
2021/11/06 08:22:56;;;;;;;2.30;2.07;;;21.90;53.10;;;;;;5035759;28;20208;-77
2021/11/06 08:25:23;;;;;;;2.70;2.17;;;21.90;53.10;;;;;;5038938;28;20156;-79
2021/11/06 08:27:55;;;;;;;4.17;2.43;;;21.90;53.10;;;;;;5035134;28;20426;-79
2021/11/06 08:30:23;;;;;;;3.30;2.93;;;21.90;53.10;;;;;;5038982;28;20411;-80
2021/11/06 08:32:52;;;;;;;3.80;2.60;;;21.80;53.00;;;;;;5053543;28;20406;-80
2021/11/06 08:35:18;;;;;;;3.40;2.63;;;21.80;53.00;;;;;;5039019;28;20434;-80
2021/11/06 08:37:44;;;;;;;3.87;2.47;;;21.80;53.00;;;;;;5056612;28;20472;-80
2021/11/06 08:40:11;;;;;;;3.40;2.53;;;21.80;53.00;;;;;;5055883;28;20406;-80
2021/11/06 08:42:38;;;;;;;2.30;2.10;;;21.80;53.00;;;;;;5055857;28;20418;-80
2021/11/06 08:45:06;;;;;;;2.70;2.43;;;21.80;53.00;;;;;;5055654;28;20665;-80
2021/11/06 08:47:33;;;;;;;2.37;2.17;;;21.80;53.10;;;;;;5054920;28;20414;-80
2021/11/06 08:49:59;;;;;;;2.80;1.83;;;21.80;53.00;;;;;;5037868;28;20431;-80
2021/11/06 08:52:24;;;;;;;3.30;2.67;;;21.80;53.10;;;;;;5037881;28;20449;-78
2021/11/06 08:54:51;;;;;;;3.27;2.40;;;21.90;53.20;;;;;;5055540;28;20229;-80
2021/11/06 08:57:20;;;;;;;2.77;2.20;;;21.80;53.10;;;;;;5021005;28;20204;-79
2021/11/06 08:59:49;;;;;;;2.77;2.30;;;21.90;53.20;;;;;;5054365;28;20424;-80
2021/11/06 09:02:17;;;;;;;2.23;2.00;;;21.90;53.20;;;;;;5037768;28;20526;-79
2021/11/06 09:04:44;;;;;;;2.93;2.63;;;21.80;53.10;;;;;;5055004;28;20419;-80
2021/11/06 09:07:13;;;;;;;3.10;2.73;;;21.90;53.20;;;;;;5040144;28;20418;-80
2021/11/06 09:09:39;;;;;;;2.50;2.30;;;21.90;53.20;;;;;;5038321;28;20458;-80
2021/11/06 09:12:05;;;;;;;2.87;2.57;;;21.90;53.20;;;;;;5038009;28;20427;-80
2021/11/06 09:14:33;;;;;;;2.97;2.23;;;21.90;53.20;;;;;;5037954;28;20180;-79
2021/11/06 09:16:59;;;;;;;2.73;2.53;;;21.90;53.20;;;;;;5016649;28;20434;-79
2021/11/06 09:19:25;;;;;;;3.07;2.50;;;21.90;53.20;;;;;;5056098;28;20454;-79
2021/11/06 09:21:51;;;;;;;2.33;2.00;;;21.90;53.20;;;;;;5055823;28;20180;-78
2021/11/06 09:24:18;;;;;;;3.13;2.83;;;21.80;53.10;;;;;;5037411;28;20410;-77
2021/11/06 09:26:44;;;;;;;4.07;2.30;;;21.90;53.20;;;;;;5036339;28;20425;-77
2021/11/06 09:29:11;;;;;;;3.27;2.40;;;21.80;53.10;;;;;;5055005;28;20403;-78
2021/11/06 09:31:38;;;;;;;2.90;2.57;;;21.90;53.10;;;;;;5026440;28;20415;-78
2021/11/06 09:34:05;;;;;;;2.53;2.30;;;21.80;53.10;;;;;;5053597;28;20440;-78
2021/11/06 09:36:32;;;;;;;2.00;1.80;;;21.90;53.30;;;;;;5037242;28;20501;-78
2021/11/06 09:39:01;;;;;;;2.60;2.33;;;21.90;53.30;;;;;;5037561;28;20445;-80
2021/11/06 09:41:27;;;;;;;2.87;1.80;;;21.90;53.30;;;;;;5036085;28;20411;-81
2021/11/06 09:43:53;;;;;;;2.70;2.43;;;21.90;53.30;;;;;;5025241;28;20422;-79
2021/11/06 09:46:19;;;;;;;3.20;2.10;;;21.90;53.20;;;;;;5034624;28;20475;-79
2021/11/06 09:48:48;;;;;;;2.77;2.50;;;22.00;53.30;;;;;;5034899;28;20415;-79
2021/11/06 09:51:17;;;;;;;3.10;2.30;;;22.00;53.30;;;;;;5035324;28;20395;-79
2021/11/06 09:53:50;;;;;;;2.50;2.30;;;21.90;53.20;;;;;;5034790;28;20425;-79
2021/11/06 09:56:19;;;;;;;5.63;3.17;;;22.00;53.20;;;;;;5034386;28;20469;-80
2021/11/06 09:58:47;;;;;;;3.00;2.60;;;22.00;53.20;;;;;;5035144;28;20459;-79
2021/11/06 10:01:14;;;;;;;3.00;1.77;;;22.00;53.20;;;;;;5034892;28;20424;-79
2021/11/06 10:03:40;;;;;;;3.40;2.67;;;22.00;53.20;;;;;;5017907;28;20419;-79
2021/11/06 10:06:16;;;;;;;4.10;2.20;;;22.00;53.20;;;;;;5034681;28;20443;-80
2021/11/06 10:08:43;;;;;;;2.43;2.00;;;22.00;53.20;;;;;;5034863;28;20406;-81
2021/11/06 10:11:12;;;;;;;2.50;2.23;;;22.00;53.20;;;;;;5001271;28;20428;-79
2021/11/06 10:13:49;;;;;;;2.50;2.10;;;22.00;53.20;;;;;;5017602;28;20416;-79
2021/11/06 10:16:20;;;;;;;2.40;2.20;;;22.00;53.10;;;;;;5017216;28;20422;-80
2021/11/06 10:19:06;;;;;;;2.23;2.03;;;22.00;53.20;;;;;;5002008;28;20463;-80
2021/11/06 10:21:36;;;;;;;3.13;2.50;;;22.00;53.10;;;;;;5018277;28;20411;-80
2021/11/06 10:24:05;;;;;;;3.03;2.03;;;22.00;53.10;;;;;;5019094;28;20427;-81
2021/11/06 10:26:34;;;;;;;2.80;1.90;;;22.00;53.10;;;;;;5017858;28;20894;-80
2021/11/06 10:29:12;;;;;;;2.20;2.00;;;22.00;53.20;;;;;;5035609;28;20388;-80
2021/11/06 10:31:53;;;;;;;2.63;2.43;;;22.00;53.10;;;;;;5018555;28;20423;-80
2021/11/06 10:34:20;;;;;;;2.50;2.30;;;22.10;53.20;;;;;;5016286;28;20427;-80
2021/11/06 10:36:57;;;;;;;2.63;2.00;;;22.00;53.10;;;;;;5035638;28;20422;-80
2021/11/06 10:39:23;;;;;;;2.87;2.13;;;22.10;53.20;;;;;;5035688;28;20478;-81
2021/11/06 10:41:52;;;;;;;3.10;2.43;;;22.00;53.10;;;;;;5033682;28;20410;-80
2021/11/06 10:44:21;;;;;;;3.40;2.43;;;22.00;53.10;;;;;;5034575;28;20403;-80
2021/11/06 10:46:58;;;;;;;3.10;2.43;;;22.10;53.10;;;;;;5034168;28;20404;-80
2021/11/06 10:49:39;;;;;;;3.30;2.23;;;22.10;53.10;;;;;;5016685;28;20407;-80
2021/11/06 10:52:13;;;;;;;2.87;2.57;;;22.10;53.10;;;;;;5033678;28;20429;-80
2021/11/06 10:55:08;;;;;;;3.13;2.50;;;22.10;53.10;;;;;;5033985;28;20391;-80
2021/11/06 10:57:35;;;;;;;2.83;2.37;;;22.10;53.10;;;;;;5016144;28;20458;-80
2021/11/06 11:00:27;;;;;;;3.20;2.70;;;22.00;53.00;;;;;;5033721;28;20383;-81
2021/11/06 11:02:53;;;;;;;3.03;2.33;;;22.10;53.10;;;;;;5031885;28;20507;-81
2021/11/06 11:05:31;;;;;;;3.03;2.53;;;22.00;53.10;;;;;;5016337;28;20407;-81
2021/11/06 11:08:14;;;;;;;2.80;2.60;;;22.10;53.10;;;;;;5033715;28;20193;-81
2021/11/06 11:10:42;;;;;;;3.60;2.50;;;22.10;53.10;;;;;;5033747;28;20475;-80
2021/11/06 11:13:10;;;;;;;3.30;2.60;;;22.00;53.00;;;;;;5016431;28;20439;-81
2021/11/06 11:15:36;;;;;;;2.50;2.30;;;22.00;53.00;;;;;;5016582;28;20450;-81
2021/11/06 11:18:02;;;;;;;2.73;2.53;;;22.00;53.00;;;;;;5034045;28;20453;-81
2021/11/06 11:20:31;;;;;;;2.57;2.37;;;22.10;53.10;;;;;;5034465;28;20411;-80
2021/11/06 11:23:22;;;;;;;2.33;2.13;;;22.00;53.00;;;;;;5035236;28;20165;-80
2021/11/06 11:25:48;;;;;;;3.53;2.20;;;22.10;53.00;;;;;;5030791;28;20404;-79
2021/11/06 11:28:14;;;;;;;2.33;2.10;;;22.00;53.00;;;;;;5013052;28;20415;-79
2021/11/06 11:30:41;;;;;;;5.20;2.50;;;22.10;53.10;;;;;;5031127;28;20414;-79
2021/11/06 11:33:08;;;;;;;2.67;2.47;;;22.10;53.00;;;;;;5012811;28;20415;-79
2021/11/06 11:35:34;;;;;;;2.80;2.60;;;22.10;53.00;;;;;;5012920;28;20431;-79
2021/11/06 11:38:00;;;;;;;2.53;2.33;;;22.10;53.00;;;;;;5029923;28;20450;-79
2021/11/06 11:40:33;;;;;;;2.83;2.30;;;22.10;53.00;;;;;;5029196;28;20235;-79
2021/11/06 11:43:26;;;;;;;5.20;2.60;;;22.10;53.00;;;;;;5012462;28;20471;-80
2021/11/06 11:46:01;;;;;;;2.60;2.40;;;22.10;53.00;;;;;;5028553;28;20404;-79
2021/11/06 11:48:28;;;;;;;1.93;1.80;;;22.10;53.00;;;;;;5012929;28;20403;-79
2021/11/06 11:50:59;;;;;;;2.97;2.40;;;22.10;53.00;;;;;;5012978;28;20567;-79
2021/11/06 11:53:28;;;;;;;2.20;1.97;;;22.10;53.00;;;;;;5030021;28;20487;-79
2021/11/06 11:55:56;;;;;;;2.80;2.43;;;22.10;53.00;;;;;;5012757;28;20502;-79
2021/11/06 11:58:23;;;;;;;2.80;2.40;;;22.00;52.90;;;;;;5014110;28;20484;-79
2021/11/06 12:00:59;;;;;;;2.90;2.60;;;22.10;53.00;;;;;;5030006;28;20507;-79
2021/11/06 12:03:42;;;;;;;2.30;2.10;;;22.10;53.00;;;;;;5012639;28;20438;-79
2021/11/06 12:06:23;;;;;;;2.63;2.33;;;22.10;53.00;;;;;;5012554;28;20411;-79
2021/11/06 12:09:12;;;;;;;3.20;2.90;;;22.10;53.00;;;;;;5011622;28;20426;-79
2021/11/06 12:11:53;;;;;;;2.67;2.40;;;22.10;53.00;;;;;;5011586;28;20449;-79
2021/11/06 12:14:23;;;;;;;3.00;2.40;;;22.10;53.00;;;;;;5012290;28;20415;-80
2021/11/06 12:16:58;;;;;;;2.40;2.07;;;22.00;53.00;;;;;;5028230;28;20478;-80
2021/11/06 12:19:44;;;;;;;2.70;2.50;;;22.10;53.10;;;;;;5011338;28;20502;-80
2021/11/06 12:22:13;;;;;;;2.73;2.53;;;22.10;53.00;;;;;;5032242;28;20413;-80
2021/11/06 12:24:41;;;;;;;2.50;2.23;;;22.10;53.00;;;;;;5014793;28;20404;-80
2021/11/06 12:27:09;;;;;;;2.50;2.20;;;22.10;53.00;;;;;;5015273;28;20403;-80
2021/11/06 12:29:47;;;;;;;2.40;2.20;;;22.10;53.00;;;;;;5014693;28;20411;-80
2021/11/06 12:32:18;;;;;;;3.23;2.60;;;22.10;53.00;;;;;;5032210;28;20392;-80
2021/11/06 12:34:50;;;;;;;2.40;2.20;;;22.10;53.00;;;;;;5014766;28;20894;-80
2021/11/06 12:37:34;;;;;;;2.67;2.47;;;22.10;53.00;;;;;;5015812;28;20415;-79
2021/11/06 12:40:21;;;;;;;2.20;2.00;;;22.10;53.00;;;;;;5015523;28;20450;-79
2021/11/06 12:43:05;;;;;;;3.20;2.57;;;22.10;53.00;;;;;;5032783;28;20419;-79
2021/11/06 12:45:32;;;;;;;2.33;2.13;;;22.10;52.90;;;;;;5015935;28;20424;-79
2021/11/06 12:48:20;;;;;;;3.50;2.40;;;22.10;53.00;;;;;;5015324;28;20415;-80
2021/11/06 12:50:56;;;;;;;2.60;2.40;;;22.10;53.00;;;;;;5014177;28;20419;-79
2021/11/06 12:53:43;;;;;;;2.67;2.13;;;22.10;53.00;;;;;;5033346;28;20400;-80
2021/11/06 12:56:27;;;;;;;2.33;1.93;;;22.10;53.00;;;;;;5032203;28;20396;-79